Time;durP1;ratioP1;P1;durP2;ratioP2;P2;SDS_P1;SDS_P2;PMS_P1;PMS_P2;Temp;Humidity;BMP_temperature;BMP_pressure;BME280_temperature;BME280_humidity;BME280_pressure;Samples;Min_cycle;Max_cycle;Signal;HPM_P1;HPM_P2
2023/07/10 00:01:00;;;;;;;8.70;5.35;;;;;;;24.62;56.83;98241.88;4995111;28;20258;-76
2023/07/10 00:03:28;;;;;;;7.43;4.93;;;;;;;24.62;57.74;98241.06;4995045;28;20214;-76
2023/07/10 00:05:55;;;;;;;7.15;5.15;;;;;;;24.61;57.99;98240.25;4995695;28;20615;-76
2023/07/10 00:08:21;;;;;;;8.50;4.88;;;;;;;24.60;58.90;98238.63;4995164;28;20211;-76
2023/07/10 00:10:47;;;;;;;8.50;5.13;;;;;;;24.63;58.43;98229.88;4994940;28;20211;-76
2023/07/10 00:13:14;;;;;;;7.60;5.07;;;;;;;24.69;57.99;98234.09;4994802;28;20211;-76
2023/07/10 00:15:41;;;;;;;6.00;5.00;;;;;;;24.74;56.73;98230.47;4994614;28;20222;-76
2023/07/10 00:18:20;;;;;;;5.90;5.00;;;;;;;24.81;57.01;98239.00;4994785;28;20234;-76
2023/07/10 00:20:47;;;;;;;6.95;5.00;;;;;;;24.84;56.97;98243.84;4995056;28;20207;-76
2023/07/10 00:23:14;;;;;;;5.20;4.70;;;;;;;24.98;54.55;98271.81;4995227;28;20294;-76
2023/07/10 00:25:41;;;;;;;4.85;4.35;;;;;;;24.95;56.19;98273.22;4995125;28;20215;-76
2023/07/10 00:28:19;;;;;;;5.88;4.53;;;;;;;24.97;55.13;98270.19;4994960;28;20210;-76
2023/07/10 00:30:47;;;;;;;7.18;4.63;;;;;;;25.00;54.81;98270.38;4994187;28;20643;-76
2023/07/10 00:33:15;;;;;;;6.30;4.35;;;;;;;24.89;55.51;98274.47;4994591;28;20207;-76
2023/07/10 00:35:43;;;;;;;5.15;4.30;;;;;;;25.01;54.45;98255.66;4994310;28;20211;-76
2023/07/10 00:38:23;;;;;;;6.82;4.78;;;;;;;25.01;54.45;98252.94;4994381;28;20231;-76
2023/07/10 00:40:50;;;;;;;6.13;4.05;;;;;;;24.97;54.92;98245.72;4994348;28;20282;-76
2023/07/10 00:43:28;;;;;;;5.47;4.38;;;;;;;24.88;55.23;98248.34;4993813;28;20214;-76
2023/07/10 00:45:57;;;;;;;4.60;4.20;;;;;;;24.84;55.50;98249.28;4994384;28;20231;-76
2023/07/10 00:48:49;;;;;;;4.38;3.90;;;;;;;24.80;54.43;98248.28;4994509;28;20210;-76
2023/07/10 00:51:23;;;;;;;5.78;3.80;;;;;;;24.74;55.18;98244.84;4994397;28;20192;-76
2023/07/10 00:53:52;;;;;;;5.68;4.20;;;;;;;24.67;55.01;98243.66;4994326;28;20191;-76
2023/07/10 00:56:20;;;;;;;6.55;4.15;;;;;;;24.61;56.67;98258.47;4994060;28;20715;-76
2023/07/10 00:58:49;;;;;;;4.57;4.05;;;;;;;24.53;56.82;98259.16;4993880;28;20222;-76
2023/07/10 01:01:21;;;;;;;5.65;4.63;;;;;;;24.47;56.36;98268.53;4994233;28;20217;-76
2023/07/10 01:03:50;;;;;;;7.07;4.05;;;;;;;24.40;57.21;98281.72;4994099;28;20187;-76
2023/07/10 01:06:27;;;;;;;6.75;4.43;;;;;;;24.38;57.33;98294.81;4994245;28;20227;-76
2023/07/10 01:09:11;;;;;;;5.28;4.57;;;;;;;24.24;58.63;98304.88;4994268;28;20194;-76
2023/07/10 01:11:38;;;;;;;5.03;4.53;;;;;;;24.24;58.77;98305.66;4994294;28;20195;-76
2023/07/10 01:14:08;;;;;;;6.57;4.85;;;;;;;24.28;58.65;98309.38;5009328;28;20665;-76
2023/07/10 01:16:35;;;;;;;10.13;9.13;;;;;;;24.35;59.12;98322.56;4994174;28;20230;-76
2023/07/10 01:19:02;;;;;;;6.40;5.72;;;;;;;24.58;58.56;98324.28;4993698;28;20318;-76
2023/07/10 01:21:31;;;;;;;5.13;4.63;;;;;;;24.71;58.53;98327.06;4994510;28;20203;-76
2023/07/10 01:24:01;;;;;;;9.18;8.23;;;;;;;24.83;57.84;98337.41;4994559;28;20212;-76
2023/07/10 01:26:29;;;;;;;7.10;4.85;;;;;;;24.76;58.28;98332.38;4994752;28;20266;-76
2023/07/10 01:28:57;;;;;;;5.20;4.65;;;;;;;24.69;58.70;98323.81;4994230;28;20215;-76
2023/07/10 01:31:26;;;;;;;8.10;5.47;;;;;;;24.70;58.65;98324.63;4994068;28;20203;-76
2023/07/10 01:34:00;;;;;;;4.65;4.03;;;;;;;24.74;57.96;98331.09;4994172;28;20274;-76
2023/07/10 01:36:31;;;;;;;6.15;4.43;;;;;;;24.80;58.46;98322.53;4993780;28;20239;-76
2023/07/10 01:39:10;;;;;;;6.18;5.57;;;;;;;24.74;59.36;98320.22;4993651;28;20683;-76
2023/07/10 01:41:40;;;;;;;6.43;5.07;;;;;;;24.64;60.61;98331.25;4993581;28;20219;-76
2023/07/10 01:44:30;;;;;;;5.93;4.70;;;;;;;24.49;61.44;98323.38;4993936;28;20253;-76
2023/07/10 01:46:58;;;;;;;6.63;5.10;;;;;;;24.43;62.78;98311.00;4994128;28;20232;-76
2023/07/10 01:49:28;;;;;;;5.28;4.75;;;;;;;24.36;63.32;98303.25;4993595;28;20216;-76
2023/07/10 01:51:57;;;;;;;5.40;4.72;;;;;;;24.28;63.58;98295.00;4993963;28;20203;-76
2023/07/10 01:54:23;;;;;;;6.22;4.50;;;;;;;24.18;64.30;98290.56;4995781;28;20210;-76
2023/07/10 01:56:50;;;;;;;6.63;5.00;;;;;;;24.09;65.80;98297.81;4997282;28;20231;-76
2023/07/10 01:59:17;;;;;;;7.55;5.13;;;;;;;24.01;67.11;98297.69;4997442;28;20242;-76
2023/07/10 02:01:43;;;;;;;6.53;4.65;;;;;;;24.03;67.26;98300.91;4997281;28;20211;-76
2023/07/10 02:04:10;;;;;;;4.93;4.53;;;;;;;23.96;67.19;98298.56;4997436;28;20207;-76
2023/07/10 02:06:38;;;;;;;6.03;4.95;;;;;;;23.98;66.92;98295.56;4997147;28;20231;-76
2023/07/10 02:09:05;;;;;;;4.85;4.35;;;;;;;23.90;67.71;98297.06;4997092;28;20203;-76
2023/07/10 02:11:34;;;;;;;5.30;4.38;;;;;;;23.85;68.30;98296.31;4997270;28;20574;-76
2023/07/10 02:14:01;;;;;;;5.47;4.65;;;;;;;23.82;68.96;98294.19;4996882;28;20654;-76
2023/07/10 02:16:27;;;;;;;6.90;4.88;;;;;;;23.79;69.15;98292.88;4997045;28;20223;-76
2023/07/10 02:18:53;;;;;;;7.22;4.75;;;;;;;23.87;68.48;98294.09;4996935;28;20575;-76
2023/07/10 02:21:20;;;;;;;5.90;5.25;;;;;;;23.98;67.37;98290.13;4997036;28;20214;-76
2023/07/10 02:23:47;;;;;;;7.40;4.88;;;;;;;24.22;66.06;98283.44;4996947;28;20215;-76
2023/07/10 02:26:17;;;;;;;6.53;5.40;;;;;;;24.19;65.78;98273.16;4997447;28;20238;-76
2023/07/10 02:28:44;;;;;;;5.78;4.80;;;;;;;24.25;65.37;98273.88;4997194;28;20207;-76
2023/07/10 02:31:11;;;;;;;6.53;5.00;;;;;;;24.24;65.43;98283.13;4996753;28;20211;-76
2023/07/10 02:33:38;;;;;;;6.28;4.07;;;;;;;24.17;66.42;98280.00;4996707;28;20207;-76
2023/07/10 02:36:04;;;;;;;8.23;4.90;;;;;;;24.13;66.66;98285.22;4996565;28;20230;-76
2023/07/10 02:38:31;;;;;;;6.30;4.88;;;;;;;24.13;67.07;98289.84;4996581;28;20233;-76
2023/07/10 02:40:58;;;;;;;5.90;4.53;;;;;;;24.00;68.36;98296.06;4996613;28;20222;-76
2023/07/10 02:43:25;;;;;;;5.15;4.65;;;;;;;24.10;66.98;98304.06;4996850;28;20211;-76
2023/07/10 02:45:51;;;;;;;5.25;4.75;;;;;;;24.17;67.01;98320.75;4996521;28;20207;-76
2023/07/10 02:48:18;;;;;;;6.97;4.45;;;;;;;24.15;66.84;98321.03;4996489;28;20287;-76
2023/07/10 02:50:44;;;;;;;6.82;4.45;;;;;;;24.12;66.70;98313.50;4995957;28;20693;-76
2023/07/10 02:53:11;;;;;;;7.65;5.07;;;;;;;24.20;66.80;98326.38;4996321;28;20208;-76
2023/07/10 02:55:38;;;;;;;8.60;4.35;;;;;;;24.15;67.42;98318.31;4996456;28;20207;-76
2023/07/10 02:58:06;;;;;;;7.15;4.82;;;;;;;24.18;66.29;98315.03;4996035;28;20234;-76
2023/07/10 03:00:32;;;;;;;6.22;4.97;;;;;;;24.20;66.43;98304.63;4996525;28;20207;-76
2023/07/10 03:02:59;;;;;;;6.35;4.80;;;;;;;24.30;65.97;98307.19;4996342;28;20214;-76
2023/07/10 03:05:26;;;;;;;6.25;4.50;;;;;;;24.28;67.07;98324.91;4995681;28;20211;-76
2023/07/10 03:07:53;;;;;;;7.05;5.07;;;;;;;24.23;67.49;98333.94;4995801;28;20729;-76
2023/07/10 03:10:21;;;;;;;6.22;4.45;;;;;;;24.26;66.89;98343.41;4995882;28;20309;-76
2023/07/10 03:12:47;;;;;;;9.18;5.00;;;;;;;24.20;67.65;98336.47;4996052;28;20207;-76
2023/07/10 03:15:14;;;;;;;10.07;4.97;;;;;;;24.25;66.75;98330.94;4995989;28;20218;-76
2023/07/10 03:17:41;;;;;;;8.65;4.82;;;;;;;24.21;67.28;98336.16;4995723;28;20234;-76
2023/07/10 03:20:09;;;;;;;7.55;4.88;;;;;;;24.21;67.92;98340.78;4995772;28;20246;-76
2023/07/10 03:22:36;;;;;;;10.38;5.57;;;;;;;24.31;66.56;98359.63;4996438;28;20226;-76
2023/07/10 03:25:02;;;;;;;6.35;4.55;;;;;;;24.34;66.74;98364.47;4996071;28;20214;-76
2023/07/10 03:27:29;;;;;;;7.50;4.90;;;;;;;24.34;66.39;98369.88;4995746;28;20231;-76
2023/07/10 03:29:56;;;;;;;6.47;5.03;;;;;;;24.27;67.37;98353.16;4995794;28;20218;-76
2023/07/10 03:32:22;;;;;;;6.90;4.70;;;;;;;24.27;67.56;98345.00;4996033;28;20207;-76
2023/07/10 03:34:52;;;;;;;8.68;4.88;;;;;;;24.27;67.53;98337.66;4995501;28;20211;-76
2023/07/10 03:37:18;;;;;;;5.32;4.80;;;;;;;24.32;66.93;98334.03;4995716;28;20233;-76
2023/07/10 03:39:44;;;;;;;6.38;4.35;;;;;;;24.35;66.68;98352.47;4995759;28;20234;-76
2023/07/10 03:42:11;;;;;;;7.80;5.00;;;;;;;24.41;67.06;98353.97;4995869;28;20213;-76
2023/07/10 03:44:37;;;;;;;7.63;4.75;;;;;;;24.53;65.89;98357.84;4995314;28;20291;-76
2023/07/10 03:47:04;;;;;;;6.82;5.18;;;;;;;24.57;65.57;98358.84;4995363;28;20242;-76
2023/07/10 03:49:30;;;;;;;8.25;4.70;;;;;;;24.61;65.56;98368.03;4995306;28;20551;-76
2023/07/10 03:51:58;;;;;;;6.45;4.90;;;;;;;24.55;66.28;98371.09;4995364;28;20572;-76
2023/07/10 03:54:25;;;;;;;7.07;5.25;;;;;;;24.51;66.89;98373.63;4995462;28;20694;-76
2023/07/10 03:56:51;;;;;;;5.05;4.32;;;;;;;24.50;66.65;98385.63;4995425;28;20223;-76
2023/07/10 03:59:19;;;;;;;7.60;4.85;;;;;;;24.43;67.55;98385.19;4995604;28;20583;-76
2023/07/10 04:01:45;;;;;;;9.10;4.55;;;;;;;24.41;67.17;98392.03;4996263;28;20207;-78
2023/07/10 04:04:11;;;;;;;5.60;4.45;;;;;;;24.43;67.14;98384.41;4992513;28;20214;-78
2023/07/10 04:06:38;;;;;;;9.90;4.97;;;;;;;24.45;66.22;98396.59;4995792;28;20238;-78
2023/07/10 04:09:04;;;;;;;6.07;4.10;;;;;;;24.40;66.91;98385.00;4995164;28;20199;-78
2023/07/10 04:11:30;;;;;;;4.82;4.25;;;;;;;24.45;66.58;98387.63;4993857;28;20208;-78
2023/07/10 04:13:57;;;;;;;6.80;4.85;;;;;;;24.48;66.38;98393.28;4989286;28;20210;-78
2023/07/10 04:16:26;;;;;;;6.25;4.50;;;;;;;24.46;67.22;98398.19;4992607;28;20226;-78
2023/07/10 04:18:54;;;;;;;6.45;4.55;;;;;;;24.45;67.64;98399.31;4991926;28;20211;-78
2023/07/10 04:21:26;;;;;;;6.53;4.40;;;;;;;24.42;67.53;98394.47;4996572;28;20572;-78
2023/07/10 04:23:53;;;;;;;6.63;4.82;;;;;;;24.41;67.52;98402.91;4993564;28;20281;-78
2023/07/10 04:26:29;;;;;;;6.07;4.65;;;;;;;24.45;67.68;98412.06;4990726;28;20719;-78
2023/07/10 04:28:59;;;;;;;7.00;4.60;;;;;;;24.38;68.34;98417.13;4979762;28;20206;-78
2023/07/10 04:31:26;;;;;;;7.90;4.50;;;;;;;24.40;67.62;98429.28;4990966;28;20203;-78
2023/07/10 04:33:53;;;;;;;7.82;5.18;;;;;;;24.37;67.71;98423.66;4976934;28;20208;-78
2023/07/10 04:36:21;;;;;;;6.65;4.20;;;;;;;24.40;68.62;98423.03;4987242;28;20246;-78
2023/07/10 04:38:48;;;;;;;7.25;4.63;;;;;;;24.39;68.03;98421.44;4994499;28;20233;-77
2023/07/10 04:41:18;;;;;;;9.18;5.25;;;;;;;24.51;66.54;98422.56;4995354;28;20207;-78
2023/07/10 04:43:45;;;;;;;7.75;4.75;;;;;;;24.42;69.54;98432.50;4994279;28;20658;-78
2023/07/10 04:46:14;;;;;;;8.93;5.20;;;;;;;24.43;69.29;98433.31;4992197;28;20223;-78
2023/07/10 04:48:42;;;;;;;8.23;4.78;;;;;;;24.42;68.84;98432.50;4990885;28;20293;-78
2023/07/10 04:51:11;;;;;;;7.85;5.45;;;;;;;24.43;68.20;98445.00;4992825;28;20701;-78
2023/07/10 04:53:38;;;;;;;6.70;5.22;;;;;;;24.41;67.88;98430.91;4994228;28;20203;-78
2023/07/10 04:56:06;;;;;;;5.35;4.50;;;;;;;24.39;67.92;98416.81;4995917;28;20233;-78
2023/07/10 04:59:05;;;;;;;7.95;6.18;;;;;;;24.45;67.62;98401.19;4995649;28;20223;-78
2023/07/10 05:01:33;;;;;;;10.90;5.00;;;;;;;24.46;67.89;98389.25;4993343;28;20211;-78
2023/07/10 05:04:00;;;;;;;6.45;4.75;;;;;;;24.40;69.56;98395.88;4996034;28;20207;-78
2023/07/10 05:06:26;;;;;;;7.28;4.60;;;;;;;24.33;70.93;98422.63;4995329;28;20227;-78
2023/07/10 05:08:59;;;;;;;10.18;5.05;;;;;;;24.46;69.45;98454.47;4995791;28;20549;-78
2023/07/10 05:11:30;;;;;;;7.63;4.78;;;;;;;24.57;69.25;98474.94;4995054;28;20246;-78
2023/07/10 05:13:57;;;;;;;7.88;5.15;;;;;;;24.83;68.98;98471.47;4995528;28;20207;-78
2023/07/10 05:16:25;;;;;;;7.43;4.82;;;;;;;25.05;67.33;98481.69;4995303;28;20227;-78
2023/07/10 05:18:51;;;;;;;7.13;4.38;;;;;;;25.11;66.81;98481.25;4994711;28;20670;-78
2023/07/10 05:21:18;;;;;;;7.97;4.85;;;;;;;25.14;67.06;98486.13;4994852;28;20207;-78
2023/07/10 05:23:44;;;;;;;6.15;4.50;;;;;;;25.57;65.11;98465.66;4995650;28;20222;-78
2023/07/10 05:26:13;;;;;;;7.90;4.78;;;;;;;25.72;65.34;98457.13;4995887;28;20235;-78
2023/07/10 05:28:40;;;;;;;5.13;4.57;;;;;;;25.97;63.81;98448.41;4996138;28;20211;-78
2023/07/10 05:31:08;;;;;;;7.30;5.03;;;;;;;25.96;64.57;98452.25;4999767;28;20207;-78
2023/07/10 05:33:35;;;;;;;8.80;4.80;;;;;;;26.08;63.43;98451.69;5000671;28;20674;-78
2023/07/10 05:36:05;;;;;;;8.70;5.47;;;;;;;26.05;64.05;98460.50;5000355;28;20233;-78
2023/07/10 05:38:33;;;;;;;14.15;5.88;;;;;;;25.94;64.17;98449.03;5000397;28;20224;-78
2023/07/10 05:41:00;;;;;;;9.63;6.75;;;;;;;25.87;63.96;98448.63;5001231;28;20667;-78
2023/07/10 05:43:29;;;;;;;13.63;6.55;;;;;;;26.02;63.36;98439.31;5001329;28;20211;-78
2023/07/10 05:45:55;;;;;;;13.20;6.68;;;;;;;25.69;65.34;98438.69;4998991;28;20706;-78
2023/07/10 05:48:22;;;;;;;11.77;6.75;;;;;;;25.59;66.01;98457.97;4999514;28;20592;-78
2023/07/10 05:50:50;;;;;;;8.30;6.78;;;;;;;25.66;66.11;98474.72;5000292;28;20218;-78
2023/07/10 05:53:17;;;;;;;16.58;6.75;;;;;;;25.69;63.76;98479.53;4999623;28;20213;-78
2023/07/10 05:55:48;;;;;;;9.40;6.18;;;;;;;25.75;63.64;98502.03;4999528;28;20214;-78
2023/07/10 05:58:16;;;;;;;10.73;6.72;;;;;;;25.77;62.86;98513.41;5000238;28;20307;-78
2023/07/10 06:00:43;;;;;;;12.00;6.25;;;;;;;25.87;62.92;98514.00;5001300;28;20225;-78
2023/07/10 06:03:10;;;;;;;9.07;5.72;;;;;;;26.00;62.63;98517.81;4999643;28;20211;-78
2023/07/10 06:05:37;;;;;;;8.60;5.18;;;;;;;26.16;63.00;98522.63;5000190;28;20674;-78
2023/07/10 06:08:04;;;;;;;11.60;5.78;;;;;;;26.18;62.63;98511.41;5000207;28;20230;-78
2023/07/10 06:10:30;;;;;;;8.95;5.75;;;;;;;26.24;61.67;98507.47;5000768;28;20211;-78
2023/07/10 06:12:56;;;;;;;9.23;4.82;;;;;;;26.48;61.98;98508.78;4998937;28;20230;-76
2023/07/10 06:15:23;;;;;;;9.07;6.40;;;;;;;26.56;60.87;98507.22;4996419;28;20298;-75
2023/07/10 06:17:49;;;;;;;6.82;5.50;;;;;;;26.85;59.87;98502.13;4996525;28;20231;-75
2023/07/10 06:20:16;;;;;;;9.43;6.35;;;;;;;27.02;59.44;98491.28;4995909;28;20230;-75
2023/07/10 06:22:43;;;;;;;6.97;5.93;;;;;;;27.23;59.37;98492.38;4996651;28;20207;-74
2023/07/10 06:25:10;;;;;;;7.63;5.75;;;;;;;27.24;59.61;98488.53;4996742;28;20675;-74
2023/07/10 06:27:36;;;;;;;17.73;15.68;;;;;;;27.34;57.99;98488.22;4994656;28;20606;-75
2023/07/10 06:30:03;;;;;;;7.95;5.55;;;;;;;27.33;57.99;98489.34;4994230;28;20569;-74
2023/07/10 06:32:30;;;;;;;10.82;8.93;;;;;;;27.28;58.54;98480.50;4993882;28;20203;-72
2023/07/10 06:34:57;;;;;;;26.42;22.73;;;;;;;27.03;59.15;98488.25;4994509;28;20266;-72
2023/07/10 06:37:23;;;;;;;7.57;6.68;;;;;;;27.10;59.82;98471.41;4994424;28;20230;-72
2023/07/10 06:40:06;;;;;;;76.10;68.82;;;;;;;27.07;59.86;98466.59;4993688;28;20314;-72
2023/07/10 06:42:33;;;;;;;14.68;13.15;;;;;;;27.20;59.16;98462.97;4993957;28;20211;-72
2023/07/10 06:44:59;;;;;;;8.75;5.13;;;;;;;27.35;58.66;98451.59;4993925;28;20214;-72
2023/07/10 06:47:25;;;;;;;9.75;7.63;;;;;;;27.45;59.09;98458.72;4996695;28;20721;-72
2023/07/10 06:49:52;;;;;;;14.15;11.43;;;;;;;27.31;57.60;98456.09;4996075;28;20213;-72
2023/07/10 06:52:18;;;;;;;7.95;5.50;;;;;;;27.52;58.59;98461.75;4995795;28;20578;-72
2023/07/10 06:54:44;;;;;;;12.90;9.23;;;;;;;27.49;57.33;98463.19;4996080;28;20578;-72
2023/07/10 06:57:11;;;;;;;13.95;12.48;;;;;;;27.57;57.63;98454.22;4995788;28;20245;-72
2023/07/10 06:59:37;;;;;;;12.20;5.55;;;;;;;27.83;57.38;98476.97;4996065;28;20211;-72
2023/07/10 07:02:04;;;;;;;33.97;29.10;;;;;;;27.94;57.20;98482.91;4995403;28;20221;-72
2023/07/10 07:04:31;;;;;;;7.70;5.57;;;;;;;28.09;57.01;98480.50;4995763;28;20207;-72
2023/07/10 07:06:58;;;;;;;13.00;11.20;;;;;;;28.20;56.51;98478.22;4996470;28;20253;-73
2023/07/10 07:09:24;;;;;;;17.55;15.85;;;;;;;28.24;56.09;98477.28;4995156;28;20231;-71
2023/07/10 07:11:51;;;;;;;22.88;20.55;;;;;;;28.13;57.45;98486.13;4995514;28;20206;-71
2023/07/10 07:14:17;;;;;;;16.05;14.45;;;;;;;27.94;57.35;98491.91;4995446;28;20575;-71
2023/07/10 07:16:43;;;;;;;6.22;4.70;;;;;;;27.76;56.89;98503.91;4995543;28;20234;-72
2023/07/10 07:19:10;;;;;;;15.23;13.73;;;;;;;27.50;56.99;98503.06;4995033;28;20234;-72
2023/07/10 07:21:36;;;;;;;12.98;11.48;;;;;;;27.40;57.48;98503.34;4994874;28;20302;-72
2023/07/10 07:24:03;;;;;;;7.35;4.75;;;;;;;27.39;58.48;98501.72;4994637;28;20635;-72
2023/07/10 07:26:29;;;;;;;6.95;4.32;;;;;;;27.32;58.58;98509.59;4995126;28;20227;-72
2023/07/10 07:28:55;;;;;;;7.53;4.13;;;;;;;27.24;59.27;98510.38;4994842;28;20582;-71
2023/07/10 07:31:22;;;;;;;25.83;23.35;;;;;;;27.19;58.96;98520.59;4995084;28;20203;-72
2023/07/10 07:33:50;;;;;;;7.68;6.40;;;;;;;27.13;59.63;98535.50;4995189;28;20211;-72
2023/07/10 07:36:16;;;;;;;12.95;11.63;;;;;;;27.34;59.32;98528.38;4995749;28;20239;-72
2023/07/10 07:38:42;;;;;;;6.22;5.57;;;;;;;27.56;58.98;98537.31;4995187;28;20532;-71
2023/07/10 07:41:09;;;;;;;8.00;6.07;;;;;;;27.71;57.37;98536.84;4994933;28;20211;-71
2023/07/10 07:43:35;;;;;;;13.15;9.75;;;;;;;27.74;57.30;98533.50;4994687;28;20206;-71
2023/07/10 07:46:02;;;;;;;18.30;16.35;;;;;;;27.98;56.76;98527.63;4994743;28;20226;-72
2023/07/10 07:48:28;;;;;;;7.30;6.57;;;;;;;28.18;56.44;98532.44;4994418;28;20570;-72
2023/07/10 07:50:57;;;;;;;6.28;5.68;;;;;;;28.19;56.50;98536.78;4994787;28;20203;-71
2023/07/10 07:53:24;;;;;;;9.00;7.07;;;;;;;28.10;55.52;98539.53;4994576;28;20233;-71
2023/07/10 07:55:50;;;;;;;5.78;4.10;;;;;;;28.23;56.34;98524.91;4994597;28;20207;-72
2023/07/10 07:58:17;;;;;;;4.60;4.20;;;;;;;28.58;54.48;98533.91;4994298;28;20222;-71
2023/07/10 08:00:43;;;;;;;5.97;5.43;;;;;;;28.39;56.03;98530.69;4994755;28;20234;-71
2023/07/10 08:03:10;;;;;;;14.82;13.35;;;;;;;28.37;55.50;98527.47;4994719;28;20206;-71
2023/07/10 08:05:37;;;;;;;6.10;4.95;;;;;;;28.28;55.99;98530.19;4994486;28;20214;-72
2023/07/10 08:08:10;;;;;;;14.57;11.25;;;;;;;28.42;55.86;98522.66;4994315;28;20215;-73
2023/07/10 08:10:40;;;;;;;5.78;5.18;;;;;;;28.53;55.50;98518.47;4994652;28;20305;-72
2023/07/10 08:13:10;;;;;;;6.35;4.00;;;;;;;28.40;55.09;98513.97;4994829;28;20214;-71
2023/07/10 08:15:37;;;;;;;6.55;5.68;;;;;;;28.35;55.04;98524.25;4994612;28;20207;-72
2023/07/10 08:18:03;;;;;;;11.50;10.32;;;;;;;28.41;54.96;98526.53;4994602;28;20207;-71
2023/07/10 08:20:30;;;;;;;9.15;7.30;;;;;;;28.19;56.01;98518.47;4994050;28;20725;-71
2023/07/10 08:22:57;;;;;;;7.25;6.03;;;;;;;27.99;57.37;98523.75;4994558;28;20207;-72
2023/07/10 08:25:24;;;;;;;5.97;4.97;;;;;;;28.06;57.52;98521.34;4994317;28;20206;-72
2023/07/10 08:27:50;;;;;;;16.77;15.13;;;;;;;28.33;58.05;98523.75;4994183;28;20230;-72
2023/07/10 08:30:17;;;;;;;5.78;4.38;;;;;;;28.67;55.95;98521.81;4993900;28;20238;-71
2023/07/10 08:32:44;;;;;;;6.50;5.82;;;;;;;28.39;57.61;98522.47;4994276;28;20219;-71
2023/07/10 08:35:10;;;;;;;7.25;5.63;;;;;;;28.43;57.58;98521.53;4994267;28;20207;-71
2023/07/10 08:37:37;;;;;;;8.98;6.63;;;;;;;27.87;59.57;98520.84;4994015;28;20237;-71
2023/07/10 08:40:06;;;;;;;9.25;4.85;;;;;;;28.27;60.19;98531.34;4994011;28;20223;-71
2023/07/10 08:42:34;;;;;;;6.30;5.57;;;;;;;28.46;59.25;98520.91;4993775;28;20574;-71
2023/07/10 08:45:02;;;;;;;12.50;11.13;;;;;;;28.30;58.09;98538.09;4994136;28;20314;-71
2023/07/10 08:47:36;;;;;;;10.38;6.47;;;;;;;28.39;57.76;98534.22;4993615;28;20235;-71
2023/07/10 08:50:22;;;;;;;6.25;4.25;;;;;;;28.50;58.36;98527.34;4994319;28;20259;-71
2023/07/10 08:53:04;;;;;;;7.43;5.70;;;;;;;28.23;58.79;98532.28;4994032;28;20199;-71
2023/07/10 08:55:46;;;;;;;7.07;5.35;;;;;;;28.43;58.86;98531.69;4993684;28;20242;-71
2023/07/10 08:58:19;;;;;;;14.60;13.13;;;;;;;28.66;57.90;98524.91;4993476;28;20226;-71
2023/07/10 09:00:49;;;;;;;6.53;5.15;;;;;;;28.74;56.86;98537.75;4993899;28;20216;-71
2023/07/10 09:03:30;;;;;;;10.85;9.07;;;;;;;29.16;57.62;98529.44;4993595;28;20207;-71
2023/07/10 09:05:58;;;;;;;6.28;4.72;;;;;;;29.21;57.20;98537.47;4997996;28;20231;-71
2023/07/10 09:08:29;;;;;;;6.07;5.47;;;;;;;28.92;57.74;98545.59;4997862;28;20233;-71
2023/07/10 09:11:01;;;;;;;14.68;13.23;;;;;;;28.88;57.72;98539.16;4997726;28;20187;-71
2023/07/10 09:13:44;;;;;;;7.25;6.28;;;;;;;29.00;57.92;98538.53;4997840;28;20191;-70
2023/07/10 09:16:17;;;;;;;11.70;8.05;;;;;;;28.96;57.96;98553.97;4997919;28;20234;-71
2023/07/10 09:18:59;;;;;;;8.05;5.03;;;;;;;28.79;59.82;98548.50;4998027;28;20191;-71
2023/07/10 09:21:30;;;;;;;6.93;6.28;;;;;;;28.14;61.74;98543.22;4997607;28;20191;-72
2023/07/10 09:23:56;;;;;;;13.55;9.80;;;;;;;28.68;59.60;98556.28;4997478;28;20688;-71
2023/07/10 09:26:33;;;;;;;6.05;4.80;;;;;;;28.53;58.87;98553.25;4997616;28;20229;-71
2023/07/10 09:29:17;;;;;;;15.55;11.60;;;;;;;28.30;60.56;98555.28;4997465;28;20269;-71
2023/07/10 09:31:52;;;;;;;7.10;4.72;;;;;;;28.85;59.94;98555.44;4997402;28;20211;-72
2023/07/10 09:34:24;;;;;;;7.32;4.82;;;;;;;28.91;59.29;98546.75;4996712;28;20218;-71
2023/07/10 09:36:52;;;;;;;5.10;4.60;;;;;;;29.17;58.98;98536.53;4996397;28;20702;-71
2023/07/10 09:39:19;;;;;;;9.43;6.47;;;;;;;28.87;58.17;98542.22;4996776;28;20223;-72
2023/07/10 09:41:47;;;;;;;5.03;4.50;;;;;;;29.00;58.66;98546.75;4996835;28;20210;-72
2023/07/10 09:44:19;;;;;;;7.15;4.63;;;;;;;29.46;56.94;98533.84;4996470;28;20663;-72
2023/07/10 09:46:46;;;;;;;9.05;6.70;;;;;;;29.58;57.14;98541.38;4996707;28;20227;-71
2023/07/10 09:49:20;;;;;;;6.10;5.40;;;;;;;29.41;56.50;98534.03;4996833;28;20202;-71
2023/07/10 09:51:58;;;;;;;5.93;5.32;;;;;;;29.41;56.07;98536.78;4996771;28;20570;-71
2023/07/10 09:54:25;;;;;;;9.30;8.38;;;;;;;29.07;56.65;98536.09;4995415;28;20203;-71
2023/07/10 09:56:54;;;;;;;11.07;7.18;;;;;;;29.27;56.19;98541.66;4996197;28;20215;-71
2023/07/10 09:59:23;;;;;;;39.10;35.15;;;;;;;28.92;56.92;98542.88;4996109;28;20200;-71
2023/07/10 10:01:53;;;;;;;16.17;13.10;;;;;;;29.30;55.17;98532.78;4995807;28;20683;-71
2023/07/10 10:04:31;;;;;;;16.25;14.55;;;;;;;29.00;56.19;98531.13;4995673;28;20608;-74
2023/07/10 10:07:04;;;;;;;10.93;8.73;;;;;;;29.11;54.72;98543.31;4993975;28;20219;-74
2023/07/10 10:09:31;;;;;;;9.20;7.78;;;;;;;29.43;54.81;98523.53;4996505;28;20306;-74
2023/07/10 10:12:03;;;;;;;14.15;12.77;;;;;;;29.59;54.13;98510.91;4996512;28;20207;-74
2023/07/10 10:14:43;;;;;;;8.63;7.72;;;;;;;29.33;53.95;98517.63;4996616;28;20191;-74
2023/07/10 10:17:16;;;;;;;7.53;5.70;;;;;;;29.21;54.75;98515.56;4995871;28;20227;-74
2023/07/10 10:19:46;;;;;;;6.63;5.93;;;;;;;29.59;53.98;98505.44;4996582;28;20261;-74
2023/07/10 10:22:16;;;;;;;9.70;8.63;;;;;;;29.58;53.68;98512.06;4996536;28;20202;-73
2023/07/10 10:24:43;;;;;;;10.38;8.13;;;;;;;29.90;53.05;98505.88;4996124;28;20208;-73
2023/07/10 10:27:27;;;;;;;7.60;5.28;;;;;;;29.85;52.80;98508.78;4996355;28;20231;-73
2023/07/10 10:30:07;;;;;;;13.48;11.27;;;;;;;29.51;55.35;98500.78;4996113;28;20540;-74
2023/07/10 10:32:39;;;;;;;6.20;5.45;;;;;;;30.30;53.18;98501.53;4996438;28;20198;-73
2023/07/10 10:35:16;;;;;;;9.15;7.75;;;;;;;30.41;52.24;98500.00;4996181;28;20265;-71
2023/07/10 10:38:00;;;;;;;16.65;13.23;;;;;;;29.98;52.52;98507.75;4996304;28;20591;-71
2023/07/10 10:41:25;;;;;;;22.35;20.05;;;;;;;29.74;53.13;98499.38;4996332;28;20231;-71
2023/07/10 10:44:03;;;;;;;10.55;8.90;;;;;;;29.90;52.78;98503.16;4993928;28;20695;-71
2023/07/10 10:46:49;;;;;;;9.60;8.68;;;;;;;29.77;52.81;98517.91;4993997;28;20238;-72
2023/07/10 10:49:28;;;;;;;21.10;19.05;;;;;;;30.31;51.80;98514.16;4995463;28;20207;-72
2023/07/10 10:52:04;;;;;;;14.55;12.70;;;;;;;30.16;52.22;98514.72;4995787;28;20615;-71
2023/07/10 10:54:45;;;;;;;5.85;5.28;;;;;;;30.14;51.27;98497.81;4995835;28;20671;-71
2023/07/10 10:57:21;;;;;;;18.60;16.73;;;;;;;30.10;51.82;98499.59;4995151;28;20237;-71
2023/07/10 10:59:56;;;;;;;9.25;4.95;;;;;;;30.74;51.50;98497.31;4993841;28;20321;-71
2023/07/10 11:02:38;;;;;;;9.00;8.07;;;;;;;30.59;50.37;98498.69;4993259;28;20206;-71
2023/07/10 11:05:43;;;;;;;8.50;5.70;;;;;;;30.75;49.79;98493.41;4993632;28;20286;-71
2023/07/10 11:08:18;;;;;;;7.30;5.43;;;;;;;31.02;50.10;98501.03;4995532;28;20298;-72
2023/07/10 11:10:46;;;;;;;9.27;5.68;;;;;;;30.76;49.24;98479.34;4996010;28;20229;-72
2023/07/10 11:13:24;;;;;;;22.40;20.20;;;;;;;30.81;49.55;98484.63;4995873;28;20207;-72
2023/07/10 11:15:51;;;;;;;12.45;10.45;;;;;;;30.55;48.99;98481.31;4995616;28;20187;-72
2023/07/10 11:18:19;;;;;;;26.13;23.60;;;;;;;30.42;49.49;98478.84;4995392;28;20590;-71
2023/07/10 11:20:46;;;;;;;8.35;7.53;;;;;;;30.43;48.49;98481.25;4995425;28;20219;-71
2023/07/10 11:23:46;;;;;;;7.20;6.50;;;;;;;30.64;49.02;98468.28;4995144;28;20658;-71
2023/07/10 11:26:23;;;;;;;5.75;4.90;;;;;;;30.86;47.31;98451.44;4994602;28;20223;-71
2023/07/10 11:29:01;;;;;;;21.95;19.92;;;;;;;30.45;48.38;98459.78;4995062;28;20302;-72
2023/07/10 11:31:36;;;;;;;21.08;19.00;;;;;;;30.43;48.42;98462.03;4995273;28;20665;-72
2023/07/10 11:34:06;;;;;;;31.83;28.55;;;;;;;30.57;47.91;98459.78;4994943;28;20631;-72
2023/07/10 11:36:35;;;;;;;5.97;5.43;;;;;;;30.39;48.17;98452.88;4995034;28;20345;-72
2023/07/10 11:39:09;;;;;;;12.50;11.35;;;;;;;30.21;47.09;98443.22;4995033;28;20204;-72
2023/07/10 11:41:40;;;;;;;21.83;19.73;;;;;;;30.25;47.86;98438.66;4994667;28;20227;-72